Oakwood, Texas
Current Conditions -  °F | °C
As of 11:55 AM on Tuesday 21 Oct 2014 (Local Time) from KPSN Reporting Station
Clear Clear  
Wind Chill: 75°   Ceiling: Unl
Heat Index: 75°   Visibility: 10mi
Dew Point: 55°   Wind: 5mph
Humidity: 49%   Direction: 80°E
Pressure: 30.13"   Gusts: NA
Location:  31.58°N, 95.85°W
Report Text: KPSN 211655Z AUTO 08004KT 10SM CLR 23/12 A3013 RMK AO2 T02380126
Loading
Personal Weather Stations






























Interactive Weather Map
Tropical Storm Tracking
New forecast layout! Learn more

10-Day Weather Forecast

Advertisements
Track Severe Weather on mobile